sensor_id;sensor_type;location;lat;lon;timestamp;P1;durP1;ratioP1;P2;durP2;ratioP2
28728;SDS011;15894;50.452;30.446;2022-07-24T00:02:23;2.58;;;1.50;;
28728;SDS011;15894;50.452;30.446;2022-07-24T00:04:49;2.83;;;1.40;;
28728;SDS011;15894;50.452;30.446;2022-07-24T00:07:14;3.72;;;1.80;;
28728;SDS011;15894;50.452;30.446;2022-07-24T00:09:40;3.97;;;1.60;;
28728;SDS011;15894;50.452;30.446;2022-07-24T00:12:06;4.40;;;1.70;;
28728;SDS011;15894;50.452;30.446;2022-07-24T00:14:32;3.33;;;1.90;;
28728;SDS011;15894;50.452;30.446;2022-07-24T00:16:57;5.68;;;1.90;;
28728;SDS011;15894;50.452;30.446;2022-07-24T00:19:23;4.93;;;1.77;;
28728;SDS011;15894;50.452;30.446;2022-07-24T00:21:49;3.35;;;1.60;;
28728;SDS011;15894;50.452;30.446;2022-07-24T00:24:15;2.35;;;1.52;;
28728;SDS011;15894;50.452;30.446;2022-07-24T00:26:41;3.70;;;1.48;;
28728;SDS011;15894;50.452;30.446;2022-07-24T00:29:06;3.50;;;1.70;;
28728;SDS011;15894;50.452;30.446;2022-07-24T00:31:32;5.72;;;1.45;;
28728;SDS011;15894;50.452;30.446;2022-07-24T00:33:58;3.17;;;1.60;;
28728;SDS011;15894;50.452;30.446;2022-07-24T00:36:23;2.97;;;1.70;;
28728;SDS011;15894;50.452;30.446;2022-07-24T00:38:49;2.63;;;1.50;;
28728;SDS011;15894;50.452;30.446;2022-07-24T00:41:14;3.45;;;1.60;;
28728;SDS011;15894;50.452;30.446;2022-07-24T00:46:32;4.05;;;1.70;;
28728;SDS011;15894;50.452;30.446;2022-07-24T00:48:59;5.05;;;1.60;;
28728;SDS011;15894;50.452;30.446;2022-07-24T00:51:25;3.17;;;1.63;;
28728;SDS011;15894;50.452;30.446;2022-07-24T00:53:51;7.30;;;1.98;;
28728;SDS011;15894;50.452;30.446;2022-07-24T00:56:16;4.88;;;1.88;;
28728;SDS011;15894;50.452;30.446;2022-07-24T00:58:42;3.35;;;1.63;;
28728;SDS011;15894;50.452;30.446;2022-07-24T01:01:09;2.50;;;1.80;;
28728;SDS011;15894;50.452;30.446;2022-07-24T01:03:35;3.67;;;1.90;;
28728;SDS011;15894;50.452;30.446;2022-07-24T01:06:01;4.10;;;1.77;;
28728;SDS011;15894;50.452;30.446;2022-07-24T01:08:27;6.60;;;1.90;;
28728;SDS011;15894;50.452;30.446;2022-07-24T01:10:52;6.00;;;1.92;;
28728;SDS011;15894;50.452;30.446;2022-07-24T01:13:18;5.13;;;2.15;;
28728;SDS011;15894;50.452;30.446;2022-07-24T01:15:46;3.47;;;1.88;;
28728;SDS011;15894;50.452;30.446;2022-07-24T01:18:12;3.95;;;2.03;;
28728;SDS011;15894;50.452;30.446;2022-07-24T01:20:37;3.67;;;1.63;;
28728;SDS011;15894;50.452;30.446;2022-07-24T01:23:03;7.93;;;1.70;;
28728;SDS011;15894;50.452;30.446;2022-07-24T01:25:29;7.57;;;1.95;;
28728;SDS011;15894;50.452;30.446;2022-07-24T01:27:55;7.93;;;2.15;;
28728;SDS011;15894;50.452;30.446;2022-07-24T01:30:22;3.75;;;2.00;;
28728;SDS011;15894;50.452;30.446;2022-07-24T01:32:48;3.40;;;1.90;;
28728;SDS011;15894;50.452;30.446;2022-07-24T01:35:14;7.53;;;2.03;;
28728;SDS011;15894;50.452;30.446;2022-07-24T01:37:39;6.85;;;2.20;;
28728;SDS011;15894;50.452;30.446;2022-07-24T01:40:05;5.03;;;2.00;;
28728;SDS011;15894;50.452;30.446;2022-07-24T01:42:31;4.20;;;2.22;;
28728;SDS011;15894;50.452;30.446;2022-07-24T01:44:57;7.68;;;2.38;;
28728;SDS011;15894;50.452;30.446;2022-07-24T01:47:22;9.60;;;2.40;;
28728;SDS011;15894;50.452;30.446;2022-07-24T01:49:48;4.00;;;2.03;;
28728;SDS011;15894;50.452;30.446;2022-07-24T01:52:13;6.45;;;2.22;;
28728;SDS011;15894;50.452;30.446;2022-07-24T01:54:39;6.22;;;2.05;;
28728;SDS011;15894;50.452;30.446;2022-07-24T01:57:05;4.22;;;2.20;;
28728;SDS011;15894;50.452;30.446;2022-07-24T01:59:30;8.60;;;2.50;;
28728;SDS011;15894;50.452;30.446;2022-07-24T02:01:56;5.68;;;2.45;;
28728;SDS011;15894;50.452;30.446;2022-07-24T02:04:21;4.68;;;2.30;;
28728;SDS011;15894;50.452;30.446;2022-07-24T02:06:47;6.05;;;2.08;;
28728;SDS011;15894;50.452;30.446;2022-07-24T02:09:12;6.85;;;2.45;;
28728;SDS011;15894;50.452;30.446;2022-07-24T02:11:38;8.48;;;2.20;;
28728;SDS011;15894;50.452;30.446;2022-07-24T02:14:04;5.15;;;2.10;;
28728;SDS011;15894;50.452;30.446;2022-07-24T02:16:30;4.95;;;2.40;;
28728;SDS011;15894;50.452;30.446;2022-07-24T02:18:55;4.22;;;1.98;;
28728;SDS011;15894;50.452;30.446;2022-07-24T02:21:21;5.57;;;2.58;;
28728;SDS011;15894;50.452;30.446;2022-07-24T02:23:47;5.10;;;2.15;;
28728;SDS011;15894;50.452;30.446;2022-07-24T02:26:12;6.30;;;2.17;;
28728;SDS011;15894;50.452;30.446;2022-07-24T02:28:38;5.88;;;2.40;;
28728;SDS011;15894;50.452;30.446;2022-07-24T02:31:04;5.55;;;1.85;;
28728;SDS011;15894;50.452;30.446;2022-07-24T02:33:29;4.03;;;1.88;;
28728;SDS011;15894;50.452;30.446;2022-07-24T02:35:55;3.85;;;1.90;;
28728;SDS011;15894;50.452;30.446;2022-07-24T02:38:20;4.93;;;1.73;;
28728;SDS011;15894;50.452;30.446;2022-07-24T02:40:46;3.08;;;1.67;;
28728;SDS011;15894;50.452;30.446;2022-07-24T02:43:11;7.80;;;2.00;;
28728;SDS011;15894;50.452;30.446;2022-07-24T02:45:37;5.13;;;1.65;;
28728;SDS011;15894;50.452;30.446;2022-07-24T02:48:03;3.22;;;1.60;;
28728;SDS011;15894;50.452;30.446;2022-07-24T02:50:30;6.15;;;1.80;;
28728;SDS011;15894;50.452;30.446;2022-07-24T02:52:58;4.05;;;1.77;;
28728;SDS011;15894;50.452;30.446;2022-07-24T02:55:24;4.85;;;2.00;;
28728;SDS011;15894;50.452;30.446;2022-07-24T02:57:53;5.47;;;1.75;;
28728;SDS011;15894;50.452;30.446;2022-07-24T03:00:19;2.70;;;1.58;;
28728;SDS011;15894;50.452;30.446;2022-07-24T03:02:45;3.30;;;1.65;;
28728;SDS011;15894;50.452;30.446;2022-07-24T03:05:10;3.65;;;1.80;;
28728;SDS011;15894;50.452;30.446;2022-07-24T03:07:37;5.00;;;1.67;;
28728;SDS011;15894;50.452;30.446;2022-07-24T03:10:06;3.03;;;1.73;;
28728;SDS011;15894;50.452;30.446;2022-07-24T03:12:33;3.03;;;1.70;;
28728;SDS011;15894;50.452;30.446;2022-07-24T03:14:59;3.75;;;1.80;;
28728;SDS011;15894;50.452;30.446;2022-07-24T03:17:25;5.65;;;1.70;;
28728;SDS011;15894;50.452;30.446;2022-07-24T03:19:51;5.97;;;1.42;;
28728;SDS011;15894;50.452;30.446;2022-07-24T03:22:16;3.47;;;1.60;;
28728;SDS011;15894;50.452;30.446;2022-07-24T03:24:42;3.97;;;1.52;;
28728;SDS011;15894;50.452;30.446;2022-07-24T03:27:08;3.10;;;1.50;;
28728;SDS011;15894;50.452;30.446;2022-07-24T03:29:33;7.82;;;1.80;;
28728;SDS011;15894;50.452;30.446;2022-07-24T03:31:59;3.63;;;1.67;;
28728;SDS011;15894;50.452;30.446;2022-07-24T03:34:24;6.28;;;1.85;;
28728;SDS011;15894;50.452;30.446;2022-07-24T03:36:50;5.47;;;1.67;;
28728;SDS011;15894;50.452;30.446;2022-07-24T03:39:16;3.83;;;1.67;;
28728;SDS011;15894;50.452;30.446;2022-07-24T03:41:42;11.43;;;2.13;;
28728;SDS011;15894;50.452;30.446;2022-07-24T03:44:07;7.45;;;1.80;;
28728;SDS011;15894;50.452;30.446;2022-07-24T03:46:33;5.90;;;1.63;;
28728;SDS011;15894;50.452;30.446;2022-07-24T03:48:59;10.15;;;1.75;;
28728;SDS011;15894;50.452;30.446;2022-07-24T03:51:25;3.30;;;1.50;;
28728;SDS011;15894;50.452;30.446;2022-07-24T03:53:50;3.22;;;1.52;;
28728;SDS011;15894;50.452;30.446;2022-07-24T03:56:16;4.38;;;1.63;;
28728;SDS011;15894;50.452;30.446;2022-07-24T03:58:42;9.45;;;1.80;;
28728;SDS011;15894;50.452;30.446;2022-07-24T04:01:08;3.47;;;1.67;;
28728;SDS011;15894;50.452;30.446;2022-07-24T04:03:34;4.75;;;1.50;;
28728;SDS011;15894;50.452;30.446;2022-07-24T04:06:01;2.58;;;1.63;;
28728;SDS011;15894;50.452;30.446;2022-07-24T04:08:27;4.28;;;1.45;;
28728;SDS011;15894;50.452;30.446;2022-07-24T04:10:52;5.15;;;1.48;;
28728;SDS011;15894;50.452;30.446;2022-07-24T04:13:22;4.00;;;1.67;;
28728;SDS011;15894;50.452;30.446;2022-07-24T04:15:53;7.30;;;1.67;;
28728;SDS011;15894;50.452;30.446;2022-07-24T04:18:20;6.63;;;1.70;;
28728;SDS011;15894;50.452;30.446;2022-07-24T04:20:45;2.75;;;1.40;;
28728;SDS011;15894;50.452;30.446;2022-07-24T04:23:11;3.05;;;1.38;;
28728;SDS011;15894;50.452;30.446;2022-07-24T04:25:37;4.82;;;1.80;;
28728;SDS011;15894;50.452;30.446;2022-07-24T04:28:03;4.75;;;1.60;;
28728;SDS011;15894;50.452;30.446;2022-07-24T04:30:28;3.97;;;1.67;;
28728;SDS011;15894;50.452;30.446;2022-07-24T04:32:55;3.38;;;1.55;;
28728;SDS011;15894;50.452;30.446;2022-07-24T04:35:21;3.47;;;1.42;;
28728;SDS011;15894;50.452;30.446;2022-07-24T04:37:47;3.08;;;1.70;;
28728;SDS011;15894;50.452;30.446;2022-07-24T04:40:13;4.95;;;1.60;;
28728;SDS011;15894;50.452;30.446;2022-07-24T04:42:39;4.10;;;1.70;;
28728;SDS011;15894;50.452;30.446;2022-07-24T04:45:05;6.07;;;1.90;;
28728;SDS011;15894;50.452;30.446;2022-07-24T04:47:33;4.25;;;1.60;;
28728;SDS011;15894;50.452;30.446;2022-07-24T04:49:59;7.10;;;1.90;;
28728;SDS011;15894;50.452;30.446;2022-07-24T04:52:24;2.85;;;1.52;;
28728;SDS011;15894;50.452;30.446;2022-07-24T04:54:50;2.92;;;1.83;;
28728;SDS011;15894;50.452;30.446;2022-07-24T04:57:16;4.22;;;1.67;;
28728;SDS011;15894;50.452;30.446;2022-07-24T04:59:42;2.40;;;1.40;;
28728;SDS011;15894;50.452;30.446;2022-07-24T05:02:07;4.97;;;1.58;;
28728;SDS011;15894;50.452;30.446;2022-07-24T05:04:33;2.97;;;1.45;;
28728;SDS011;15894;50.452;30.446;2022-07-24T05:06:59;2.38;;;1.45;;
28728;SDS011;15894;50.452;30.446;2022-07-24T05:09:26;8.85;;;1.60;;
28728;SDS011;15894;50.452;30.446;2022-07-24T05:11:52;3.60;;;1.90;;
28728;SDS011;15894;50.452;30.446;2022-07-24T05:14:18;3.03;;;1.33;;
28728;SDS011;15894;50.452;30.446;2022-07-24T05:16:44;4.95;;;1.58;;
28728;SDS011;15894;50.452;30.446;2022-07-24T05:19:09;5.90;;;1.58;;
28728;SDS011;15894;50.452;30.446;2022-07-24T05:21:35;2.45;;;1.33;;
28728;SDS011;15894;50.452;30.446;2022-07-24T05:24:00;2.35;;;1.60;;
28728;SDS011;15894;50.452;30.446;2022-07-24T05:26:27;3.67;;;1.67;;
28728;SDS011;15894;50.452;30.446;2022-07-24T05:28:53;6.93;;;1.40;;
28728;SDS011;15894;50.452;30.446;2022-07-24T05:31:19;2.45;;;1.30;;
28728;SDS011;15894;50.452;30.446;2022-07-24T05:33:45;3.65;;;1.80;;
28728;SDS011;15894;50.452;30.446;2022-07-24T05:36:10;8.02;;;1.73;;
28728;SDS011;15894;50.452;30.446;2022-07-24T05:38:36;3.78;;;1.65;;
28728;SDS011;15894;50.452;30.446;2022-07-24T05:41:02;2.67;;;1.50;;
28728;SDS011;15894;50.452;30.446;2022-07-24T05:43:27;6.32;;;1.70;;
28728;SDS011;15894;50.452;30.446;2022-07-24T05:45:53;5.22;;;1.38;;
28728;SDS011;15894;50.452;30.446;2022-07-24T05:48:19;3.17;;;1.30;;
28728;SDS011;15894;50.452;30.446;2022-07-24T05:50:44;5.47;;;1.60;;
28728;SDS011;15894;50.452;30.446;2022-07-24T05:53:10;2.95;;;1.33;;
28728;SDS011;15894;50.452;30.446;2022-07-24T05:55:35;2.70;;;1.40;;
28728;SDS011;15894;50.452;30.446;2022-07-24T05:58:01;7.82;;;1.58;;
28728;SDS011;15894;50.452;30.446;2022-07-24T06:00:28;6.50;;;1.63;;
28728;SDS011;15894;50.452;30.446;2022-07-24T06:02:53;4.32;;;1.35;;
28728;SDS011;15894;50.452;30.446;2022-07-24T06:05:19;3.40;;;1.50;;
28728;SDS011;15894;50.452;30.446;2022-07-24T06:07:44;3.63;;;1.70;;
28728;SDS011;15894;50.452;30.446;2022-07-24T06:10:10;4.35;;;1.40;;
28728;SDS011;15894;50.452;30.446;2022-07-24T06:12:36;4.47;;;1.52;;
28728;SDS011;15894;50.452;30.446;2022-07-24T06:15:02;3.13;;;1.45;;
28728;SDS011;15894;50.452;30.446;2022-07-24T06:17:28;4.28;;;1.25;;
28728;SDS011;15894;50.452;30.446;2022-07-24T06:19:53;5.20;;;1.60;;
28728;SDS011;15894;50.452;30.446;2022-07-24T06:22:19;6.18;;;1.30;;
28728;SDS011;15894;50.452;30.446;2022-07-24T06:24:45;2.90;;;1.20;;
28728;SDS011;15894;50.452;30.446;2022-07-24T06:27:10;6.22;;;1.40;;
28728;SDS011;15894;50.452;30.446;2022-07-24T06:29:36;3.83;;;1.40;;
28728;SDS011;15894;50.452;30.446;2022-07-24T06:32:01;2.42;;;1.38;;
28728;SDS011;15894;50.452;30.446;2022-07-24T06:34:27;5.68;;;1.35;;
28728;SDS011;15894;50.452;30.446;2022-07-24T06:36:53;2.17;;;1.27;;
28728;SDS011;15894;50.452;30.446;2022-07-24T06:39:18;4.70;;;1.40;;
28728;SDS011;15894;50.452;30.446;2022-07-24T06:41:44;6.75;;;1.70;;
28728;SDS011;15894;50.452;30.446;2022-07-24T06:44:10;5.03;;;1.50;;
28728;SDS011;15894;50.452;30.446;2022-07-24T06:46:36;2.92;;;1.52;;
28728;SDS011;15894;50.452;30.446;2022-07-24T06:49:01;7.32;;;1.40;;
28728;SDS011;15894;50.452;30.446;2022-07-24T06:51:27;7.07;;;1.67;;
28728;SDS011;15894;50.452;30.446;2022-07-24T06:53:53;4.93;;;1.90;;
28728;SDS011;15894;50.452;30.446;2022-07-24T06:56:19;3.30;;;1.80;;
28728;SDS011;15894;50.452;30.446;2022-07-24T06:58:45;5.38;;;2.00;;
28728;SDS011;15894;50.452;30.446;2022-07-24T07:01:11;7.43;;;1.90;;
28728;SDS011;15894;50.452;30.446;2022-07-24T07:03:36;2.70;;;1.50;;
28728;SDS011;15894;50.452;30.446;2022-07-24T07:06:02;4.85;;;1.50;;
28728;SDS011;15894;50.452;30.446;2022-07-24T07:08:28;3.08;;;1.92;;
28728;SDS011;15894;50.452;30.446;2022-07-24T07:10:54;2.75;;;1.40;;
28728;SDS011;15894;50.452;30.446;2022-07-24T07:13:19;6.07;;;1.65;;
28728;SDS011;15894;50.452;30.446;2022-07-24T07:15:45;3.70;;;1.50;;
28728;SDS011;15894;50.452;30.446;2022-07-24T07:18:11;5.45;;;1.45;;
28728;SDS011;15894;50.452;30.446;2022-07-24T07:20:36;5.63;;;1.38;;
28728;SDS011;15894;50.452;30.446;2022-07-24T07:23:02;2.33;;;1.15;;
28728;SDS011;15894;50.452;30.446;2022-07-24T07:25:28;1.35;;;0.98;;
28728;SDS011;15894;50.452;30.446;2022-07-24T07:27:54;6.97;;;1.42;;
28728;SDS011;15894;50.452;30.446;2022-07-24T07:30:19;1.38;;;1.10;;
28728;SDS011;15894;50.452;30.446;2022-07-24T07:32:46;3.37;;;1.00;;
28728;SDS011;15894;50.452;30.446;2022-07-24T07:35:12;1.77;;;0.90;;
28728;SDS011;15894;50.452;30.446;2022-07-24T07:37:37;3.67;;;1.23;;
28728;SDS011;15894;50.452;30.446;2022-07-24T07:40:03;5.15;;;1.23;;
28728;SDS011;15894;50.452;30.446;2022-07-24T07:42:29;4.10;;;1.10;;
28728;SDS011;15894;50.452;30.446;2022-07-24T07:44:55;4.25;;;1.10;;
28728;SDS011;15894;50.452;30.446;2022-07-24T07:47:20;3.72;;;1.40;;
28728;SDS011;15894;50.452;30.446;2022-07-24T07:49:46;2.55;;;1.33;;
28728;SDS011;15894;50.452;30.446;2022-07-24T07:52:12;2.97;;;1.42;;
28728;SDS011;15894;50.452;30.446;2022-07-24T07:54:37;2.70;;;1.20;;
28728;SDS011;15894;50.452;30.446;2022-07-24T07:57:03;1.83;;;0.98;;
28728;SDS011;15894;50.452;30.446;2022-07-24T07:59:29;3.38;;;1.02;;
28728;SDS011;15894;50.452;30.446;2022-07-24T08:01:55;6.22;;;1.10;;
28728;SDS011;15894;50.452;30.446;2022-07-24T08:04:21;6.07;;;0.98;;
28728;SDS011;15894;50.452;30.446;2022-07-24T08:06:47;1.80;;;1.10;;
28728;SDS011;15894;50.452;30.446;2022-07-24T08:09:12;2.50;;;1.20;;
28728;SDS011;15894;50.452;30.446;2022-07-24T08:11:38;3.25;;;1.40;;
28728;SDS011;15894;50.452;30.446;2022-07-24T08:14:03;4.03;;;1.30;;
28728;SDS011;15894;50.452;30.446;2022-07-24T08:16:29;2.63;;;1.10;;
28728;SDS011;15894;50.452;30.446;2022-07-24T08:18:55;9.77;;;1.10;;
28728;SDS011;15894;50.452;30.446;2022-07-24T08:21:20;5.22;;;1.15;;
28728;SDS011;15894;50.452;30.446;2022-07-24T08:23:47;4.57;;;1.20;;
28728;SDS011;15894;50.452;30.446;2022-07-24T08:26:13;3.27;;;1.00;;
28728;SDS011;15894;50.452;30.446;2022-07-24T08:28:39;2.63;;;1.45;;
28728;SDS011;15894;50.452;30.446;2022-07-24T08:31:05;3.05;;;1.40;;
28728;SDS011;15894;50.452;30.446;2022-07-24T08:33:31;2.22;;;1.17;;
28728;SDS011;15894;50.452;30.446;2022-07-24T08:35:56;7.57;;;1.33;;
28728;SDS011;15894;50.452;30.446;2022-07-24T08:38:22;2.65;;;1.10;;
28728;SDS011;15894;50.452;30.446;2022-07-24T08:40:48;4.22;;;1.23;;
28728;SDS011;15894;50.452;30.446;2022-07-24T08:43:16;4.22;;;1.23;;
28728;SDS011;15894;50.452;30.446;2022-07-24T08:45:42;2.88;;;1.15;;
28728;SDS011;15894;50.452;30.446;2022-07-24T08:48:09;6.80;;;1.60;;
28728;SDS011;15894;50.452;30.446;2022-07-24T08:50:37;5.90;;;1.08;;
28728;SDS011;15894;50.452;30.446;2022-07-24T08:53:04;5.50;;;1.52;;
28728;SDS011;15894;50.452;30.446;2022-07-24T08:55:30;2.70;;;1.20;;
28728;SDS011;15894;50.452;30.446;2022-07-24T08:57:56;3.90;;;1.42;;
28728;SDS011;15894;50.452;30.446;2022-07-24T09:00:24;3.50;;;1.30;;
28728;SDS011;15894;50.452;30.446;2022-07-24T09:02:50;3.33;;;1.20;;
28728;SDS011;15894;50.452;30.446;2022-07-24T09:05:16;2.35;;;1.30;;
28728;SDS011;15894;50.452;30.446;2022-07-24T09:07:41;4.47;;;1.10;;
28728;SDS011;15894;50.452;30.446;2022-07-24T09:10:08;2.63;;;1.30;;
28728;SDS011;15894;50.452;30.446;2022-07-24T09:12:38;2.30;;;1.23;;
28728;SDS011;15894;50.452;30.446;2022-07-24T09:17:51;7.00;;;1.30;;
28728;SDS011;15894;50.452;30.446;2022-07-24T09:20:19;5.68;;;2.03;;
28728;SDS011;15894;50.452;30.446;2022-07-24T09:22:46;6.53;;;1.40;;
28728;SDS011;15894;50.452;30.446;2022-07-24T09:27:54;4.00;;;1.40;;
28728;SDS011;15894;50.452;30.446;2022-07-24T09:30:23;7.38;;;1.20;;
28728;SDS011;15894;50.452;30.446;2022-07-24T09:32:59;3.90;;;1.40;;
28728;SDS011;15894;50.452;30.446;2022-07-24T09:35:40;2.55;;;1.40;;
28728;SDS011;15894;50.452;30.446;2022-07-24T09:38:15;5.60;;;1.23;;
28728;SDS011;15894;50.452;30.446;2022-07-24T09:40:43;3.53;;;1.40;;
28728;SDS011;15894;50.452;30.446;2022-07-24T09:48:31;7.20;;;1.33;;
28728;SDS011;15894;50.452;30.446;2022-07-24T09:51:01;6.00;;;1.50;;
28728;SDS011;15894;50.452;30.446;2022-07-24T09:53:38;4.28;;;1.58;;
28728;SDS011;15894;50.452;30.446;2022-07-24T09:56:11;6.25;;;1.30;;
28728;SDS011;15894;50.452;30.446;2022-07-24T09:58:49;6.75;;;1.70;;
28728;SDS011;15894;50.452;30.446;2022-07-24T10:01:18;2.42;;;1.23;;
28728;SDS011;15894;50.452;30.446;2022-07-24T10:03:46;6.93;;;1.50;;
28728;SDS011;15894;50.452;30.446;2022-07-24T10:06:14;8.10;;;1.60;;
28728;SDS011;15894;50.452;30.446;2022-07-24T10:08:42;5.68;;;1.20;;
28728;SDS011;15894;50.452;30.446;2022-07-24T10:11:10;4.22;;;1.55;;
28728;SDS011;15894;50.452;30.446;2022-07-24T10:13:36;2.85;;;1.30;;
28728;SDS011;15894;50.452;30.446;2022-07-24T10:16:06;4.18;;;1.42;;
28728;SDS011;15894;50.452;30.446;2022-07-24T10:18:49;6.07;;;1.55;;
28728;SDS011;15894;50.452;30.446;2022-07-24T10:29:06;3.38;;;1.10;;
28728;SDS011;15894;50.452;30.446;2022-07-24T10:31:35;9.48;;;1.67;;
28728;SDS011;15894;50.452;30.446;2022-07-24T10:34:09;5.78;;;1.60;;
28728;SDS011;15894;50.452;30.446;2022-07-24T10:36:44;7.80;;;1.55;;
28728;SDS011;15894;50.452;30.446;2022-07-24T10:39:26;3.20;;;1.20;;
28728;SDS011;15894;50.452;30.446;2022-07-24T10:42:03;4.90;;;1.38;;
28728;SDS011;15894;50.452;30.446;2022-07-24T10:44:30;3.30;;;1.17;;
28728;SDS011;15894;50.452;30.446;2022-07-24T10:49:48;8.95;;;1.40;;
28728;SDS011;15894;50.452;30.446;2022-07-24T10:52:23;3.55;;;1.27;;
28728;SDS011;15894;50.452;30.446;2022-07-24T10:58:11;7.30;;;1.30;;
28728;SDS011;15894;50.452;30.446;2022-07-24T11:00:46;5.47;;;1.42;;
28728;SDS011;15894;50.452;30.446;2022-07-24T11:03:33;4.45;;;1.50;;
28728;SDS011;15894;50.452;30.446;2022-07-24T11:06:09;5.70;;;1.30;;
28728;SDS011;15894;50.452;30.446;2022-07-24T11:11:06;5.22;;;1.42;;
28728;SDS011;15894;50.452;30.446;2022-07-24T11:21:27;3.78;;;1.80;;
28728;SDS011;15894;50.452;30.446;2022-07-24T11:29:23;4.32;;;2.00;;
28728;SDS011;15894;50.452;30.446;2022-07-24T11:31:58;5.60;;;2.80;;
28728;SDS011;15894;50.452;30.446;2022-07-24T11:34:26;10.60;;;2.65;;
28728;SDS011;15894;50.452;30.446;2022-07-24T11:36:55;6.95;;;3.40;;
28728;SDS011;15894;50.452;30.446;2022-07-24T11:41:58;9.88;;;4.07;;
28728;SDS011;15894;50.452;30.446;2022-07-24T11:44:29;10.60;;;4.30;;
28728;SDS011;15894;50.452;30.446;2022-07-24T11:46:59;9.95;;;4.53;;
28728;SDS011;15894;50.452;30.446;2022-07-24T11:49:30;8.55;;;5.05;;
28728;SDS011;15894;50.452;30.446;2022-07-24T11:52:03;6.40;;;4.05;;
28728;SDS011;15894;50.452;30.446;2022-07-24T11:54:29;6.53;;;4.60;;
28728;SDS011;15894;50.452;30.446;2022-07-24T11:56:55;9.95;;;5.15;;
28728;SDS011;15894;50.452;30.446;2022-07-24T11:59:22;6.27;;;4.20;;
28728;SDS011;15894;50.452;30.446;2022-07-24T12:01:48;9.27;;;4.55;;
28728;SDS011;15894;50.452;30.446;2022-07-24T12:04:18;10.80;;;4.82;;
28728;SDS011;15894;50.452;30.446;2022-07-24T12:06:46;7.82;;;4.28;;
28728;SDS011;15894;50.452;30.446;2022-07-24T12:09:12;8.70;;;4.88;;
28728;SDS011;15894;50.452;30.446;2022-07-24T12:11:37;8.27;;;4.60;;
28728;SDS011;15894;50.452;30.446;2022-07-24T12:14:16;12.90;;;5.43;;
28728;SDS011;15894;50.452;30.446;2022-07-24T12:16:44;5.80;;;4.45;;
28728;SDS011;15894;50.452;30.446;2022-07-24T12:19:19;9.00;;;4.97;;
28728;SDS011;15894;50.452;30.446;2022-07-24T12:21:50;11.73;;;5.10;;
28728;SDS011;15894;50.452;30.446;2022-07-24T12:24:18;8.43;;;4.95;;
28728;SDS011;15894;50.452;30.446;2022-07-24T12:26:51;7.50;;;5.03;;
28728;SDS011;15894;50.452;30.446;2022-07-24T12:29:19;10.68;;;5.20;;
28728;SDS011;15894;50.452;30.446;2022-07-24T12:31:46;6.03;;;3.90;;
28728;SDS011;15894;50.452;30.446;2022-07-24T12:34:12;14.70;;;5.60;;
28728;SDS011;15894;50.452;30.446;2022-07-24T12:36:37;7.03;;;4.53;;
28728;SDS011;15894;50.452;30.446;2022-07-24T12:39:04;7.18;;;5.10;;
28728;SDS011;15894;50.452;30.446;2022-07-24T12:41:31;7.78;;;4.82;;
28728;SDS011;15894;50.452;30.446;2022-07-24T12:44:05;7.88;;;4.82;;
28728;SDS011;15894;50.452;30.446;2022-07-24T12:46:32;7.90;;;5.40;;
28728;SDS011;15894;50.452;30.446;2022-07-24T12:51:46;11.73;;;5.18;;
28728;SDS011;15894;50.452;30.446;2022-07-24T12:54:20;11.82;;;5.38;;
28728;SDS011;15894;50.452;30.446;2022-07-24T12:56:55;12.20;;;5.88;;
28728;SDS011;15894;50.452;30.446;2022-07-24T13:01:59;9.13;;;5.57;;
28728;SDS011;15894;50.452;30.446;2022-07-24T13:04:31;7.53;;;5.53;;
28728;SDS011;15894;50.452;30.446;2022-07-24T13:06:59;9.82;;;5.25;;
28728;SDS011;15894;50.452;30.446;2022-07-24T13:09:26;10.40;;;5.72;;
28728;SDS011;15894;50.452;30.446;2022-07-24T13:11:55;8.85;;;5.50;;
28728;SDS011;15894;50.452;30.446;2022-07-24T13:14:22;11.52;;;5.80;;
28728;SDS011;15894;50.452;30.446;2022-07-24T13:16:49;13.55;;;6.55;;
28728;SDS011;15894;50.452;30.446;2022-07-24T13:19:16;10.60;;;6.53;;
28728;SDS011;15894;50.452;30.446;2022-07-24T13:21:44;7.57;;;5.97;;
28728;SDS011;15894;50.452;30.446;2022-07-24T13:24:11;13.90;;;6.43;;
28728;SDS011;15894;50.452;30.446;2022-07-24T13:26:39;12.13;;;6.75;;
28728;SDS011;15894;50.452;30.446;2022-07-24T13:29:06;13.02;;;7.03;;
28728;SDS011;15894;50.452;30.446;2022-07-24T13:31:32;9.82;;;5.82;;
28728;SDS011;15894;50.452;30.446;2022-07-24T13:33:58;7.63;;;5.45;;
28728;SDS011;15894;50.452;30.446;2022-07-24T13:36:24;9.10;;;5.93;;
28728;SDS011;15894;50.452;30.446;2022-07-24T13:38:50;11.23;;;6.13;;
28728;SDS011;15894;50.452;30.446;2022-07-24T13:41:16;10.55;;;6.30;;
28728;SDS011;15894;50.452;30.446;2022-07-24T13:43:44;13.63;;;7.03;;
28728;SDS011;15894;50.452;30.446;2022-07-24T13:46:10;11.30;;;6.32;;
28728;SDS011;15894;50.452;30.446;2022-07-24T13:48:37;9.45;;;6.30;;
28728;SDS011;15894;50.452;30.446;2022-07-24T13:51:03;11.40;;;6.80;;
28728;SDS011;15894;50.452;30.446;2022-07-24T13:53:29;15.27;;;6.97;;
28728;SDS011;15894;50.452;30.446;2022-07-24T13:55:54;9.75;;;5.88;;
28728;SDS011;15894;50.452;30.446;2022-07-24T13:58:20;8.10;;;5.75;;
28728;SDS011;15894;50.452;30.446;2022-07-24T14:00:46;8.65;;;6.40;;
28728;SDS011;15894;50.452;30.446;2022-07-24T14:03:12;7.00;;;5.95;;
28728;SDS011;15894;50.452;30.446;2022-07-24T14:05:37;8.20;;;5.63;;
28728;SDS011;15894;50.452;30.446;2022-07-24T14:08:03;7.80;;;5.75;;
28728;SDS011;15894;50.452;30.446;2022-07-24T14:10:29;8.77;;;6.15;;
28728;SDS011;15894;50.452;30.446;2022-07-24T14:12:55;8.40;;;6.03;;
28728;SDS011;15894;50.452;30.446;2022-07-24T14:15:20;10.20;;;6.10;;
28728;SDS011;15894;50.452;30.446;2022-07-24T14:17:46;9.55;;;5.93;;
28728;SDS011;15894;50.452;30.446;2022-07-24T14:20:12;10.48;;;6.60;;
28728;SDS011;15894;50.452;30.446;2022-07-24T14:22:38;9.00;;;6.30;;
28728;SDS011;15894;50.452;30.446;2022-07-24T14:25:06;12.07;;;7.00;;
28728;SDS011;15894;50.452;30.446;2022-07-24T14:27:32;15.27;;;6.55;;
28728;SDS011;15894;50.452;30.446;2022-07-24T14:29:59;8.80;;;6.10;;
28728;SDS011;15894;50.452;30.446;2022-07-24T14:32:25;11.07;;;6.30;;
28728;SDS011;15894;50.452;30.446;2022-07-24T14:34:51;9.07;;;6.28;;
28728;SDS011;15894;50.452;30.446;2022-07-24T14:37:17;11.35;;;7.38;;
28728;SDS011;15894;50.452;30.446;2022-07-24T14:39:42;11.80;;;7.15;;
28728;SDS011;15894;50.452;30.446;2022-07-24T14:42:08;8.02;;;6.68;;
28728;SDS011;15894;50.452;30.446;2022-07-24T14:44:34;9.95;;;7.55;;
28728;SDS011;15894;50.452;30.446;2022-07-24T14:47:00;13.88;;;7.63;;
28728;SDS011;15894;50.452;30.446;2022-07-24T14:49:29;10.60;;;6.97;;
28728;SDS011;15894;50.452;30.446;2022-07-24T14:51:54;11.55;;;8.13;;
28728;SDS011;15894;50.452;30.446;2022-07-24T14:54:20;11.50;;;8.13;;
28728;SDS011;15894;50.452;30.446;2022-07-24T14:56:46;10.32;;;7.13;;
28728;SDS011;15894;50.452;30.446;2022-07-24T14:59:11;14.10;;;7.40;;
28728;SDS011;15894;50.452;30.446;2022-07-24T15:01:38;10.60;;;6.72;;
28728;SDS011;15894;50.452;30.446;2022-07-24T15:04:03;8.13;;;6.32;;
28728;SDS011;15894;50.452;30.446;2022-07-24T15:06:29;9.32;;;6.75;;
28728;SDS011;15894;50.452;30.446;2022-07-24T15:08:55;9.98;;;6.50;;
28728;SDS011;15894;50.452;30.446;2022-07-24T15:11:21;9.65;;;7.30;;
28728;SDS011;15894;50.452;30.446;2022-07-24T15:13:50;12.07;;;7.13;;
28728;SDS011;15894;50.452;30.446;2022-07-24T15:16:16;8.68;;;7.10;;
28728;SDS011;15894;50.452;30.446;2022-07-24T15:18:42;9.27;;;6.75;;
28728;SDS011;15894;50.452;30.446;2022-07-24T15:21:08;8.05;;;6.43;;
28728;SDS011;15894;50.452;30.446;2022-07-24T15:23:33;8.75;;;6.32;;